CheckWX is a tool to help pilots better visualize weather data.  It is not intended as a substitute for an official pre-flight weather briefing.

00:42:19 UTC

MHLC METAR
Goloson International Airport
La Ceiba, Honduras
Current

3 hours ago

MHLC 272200Z 03009KT 9999 FEW026 FEW032CB BKN250 30/25 Q1009 A2980
Observed
May-27 @ 22:00 UTC
Wind
  • 030° at 9 KTS
Visibility
10,000+ meters
Flight Rules
VFR
Cloud Levels
  • Few at 2,600' AGL
  • Few at 3,200' AGL
  • Broken at 25,000' AGL
Temperature
30°C / 86°F
Dewpoint
25°C / 77°F
Humidity
75%
Altimeter
29.79" Hg
Pressure
1008.92 hPa
Previous

5 hours ago

MHLC 272000Z 01008KT 9999 FEW025 BKN080 30/25 Q1009 A2980
Observed
May-27 @ 20:00 UTC
Wind
  • 010° at 8 KTS
Visibility
10,000+ meters
Flight Rules
VFR
Cloud Levels
  • Few at 2,500' AGL
  • Broken at 8,000' AGL
Temperature
30°C / 86°F
Dewpoint
25°C / 77°F
Humidity
75%
Altimeter
29.79" Hg
Pressure
1008.92 hPa
Previous

6 hours ago

MHLC 271900Z 05006KT 9999 FEW024 BKN070 30/26 Q1010 A2983
Observed
May-27 @ 19:00 UTC
Wind
  • 050° at 6 KTS
Visibility
10,000+ meters
Flight Rules
VFR
Cloud Levels
  • Few at 2,400' AGL
  • Broken at 7,000' AGL
Temperature
30°C / 86°F
Dewpoint
26°C / 79°F
Humidity
79%
Altimeter
29.82" Hg
Pressure
1009.92 hPa